Time;durP1;ratioP1;P1;durP2;ratioP2;P2;SDS_P1;SDS_P2;PMS_P1;PMS_P2;Temp;Humidity;BMP_temperature;BMP_pressure;BME280_temperature;BME280_humidity;BME280_pressure;Samples;Min_cycle;Max_cycle;Signal;HPM_P1;HPM_P2
2022/10/12 00:00:27;;;;;;;10.60;4.20;;;;;;;;;;5027125;28;20496;-87
2022/10/12 00:02:52;;;;;;;21.13;6.37;;;;;;;;;;5028301;28;20013;-88
2022/10/12 00:05:17;;;;;;;19.40;4.05;;;;;;;;;;5028941;28;20264;-87
2022/10/12 00:07:43;;;;;;;9.68;4.20;;;;;;;;;;5027078;28;20025;-87
2022/10/12 00:10:08;;;;;;;14.48;4.20;;;;;;;;;;5027634;28;20029;-87
2022/10/12 00:12:33;;;;;;;13.77;4.90;;;;;;;;;;5023518;28;20558;-87
2022/10/12 00:14:58;;;;;;;14.80;4.43;;;;;;;;;;5024313;28;20048;-88
2022/10/12 00:17:23;;;;;;;11.73;5.07;;;;;;;;;;5025577;28;20543;-87
2022/10/12 00:19:49;;;;;;;15.95;4.32;;;;;;;;;;5027758;28;20017;-87
2022/10/12 00:22:14;;;;;;;16.73;4.30;;;;;;;;;;5027183;28;20017;-87
2022/10/12 00:24:40;;;;;;;12.95;5.35;;;;;;;;;;5024764;28;20105;-87
2022/10/12 00:27:05;;;;;;;12.35;4.90;;;;;;;;;;5022553;28;20028;-88
2022/10/12 00:29:30;;;;;;;12.55;5.07;;;;;;;;;;5026574;28;20017;-87
2022/10/12 00:31:55;;;;;;;17.35;4.68;;;;;;;;;;5025300;28;20059;-87
2022/10/12 00:34:23;;;;;;;10.50;3.60;;;;;;;;;;5028398;28;20505;-87
2022/10/12 00:36:49;;;;;;;19.05;5.30;;;;;;;;;;5024493;28;20028;-88
2022/10/12 00:39:14;;;;;;;14.00;4.28;;;;;;;;;;5022199;28;20515;-88
2022/10/12 00:41:41;;;;;;;12.50;4.90;;;;;;;;;;5024971;28;20573;-87
2022/10/12 00:44:25;;;;;;;24.23;5.20;;;;;;;;;;5026027;28;20397;-87
2022/10/12 00:46:51;;;;;;;21.23;5.95;;;;;;;;;;5021070;28;20025;-87
2022/10/12 00:49:18;;;;;;;15.93;4.80;;;;;;;;;;5026494;28;20426;-87
2022/10/12 00:51:47;;;;;;;15.48;5.40;;;;;;;;;;5025373;28;20370;-87
2022/10/12 00:54:14;;;;;;;17.55;4.57;;;;;;;;;;5025987;28;20402;-87
2022/10/12 00:56:40;;;;;;;10.98;4.40;;;;;;;;;;5025641;28;20025;-87
2022/10/12 00:59:07;;;;;;;12.98;4.88;;;;;;;;;;5028133;28;20033;-87
2022/10/12 01:01:33;;;;;;;13.27;4.13;;;;;;;;;;5028202;28;20049;-88
2022/10/12 01:03:59;;;;;;;20.08;4.63;;;;;;;;;;5025470;28;20063;-87
2022/10/12 01:06:24;;;;;;;12.40;4.05;;;;;;;;;;5025366;28;20493;-87
2022/10/12 01:08:49;;;;;;;17.65;4.20;;;;;;;;;;5024371;28;20021;-87
2022/10/12 01:11:14;;;;;;;16.83;5.75;;;;;;;;;;5025479;28;20595;-87
2022/10/12 01:13:39;;;;;;;18.08;5.35;;;;;;;;;;5027288;28;20482;-88
2022/10/12 01:16:08;;;;;;;11.85;4.65;;;;;;;;;;5019501;28;20025;-88
2022/10/12 01:18:38;;;;;;;12.73;4.85;;;;;;;;;;5027500;28;20025;-88
2022/10/12 01:21:04;;;;;;;15.32;4.05;;;;;;;;;;5024388;28;20021;-87
2022/10/12 01:23:56;;;;;;;14.70;4.68;;;;;;;;;;5023403;28;20381;-87
2022/10/12 01:26:21;;;;;;;14.40;4.07;;;;;;;;;;5022380;28;20381;-87
2022/10/12 01:28:46;;;;;;;13.20;3.83;;;;;;;;;;5020216;28;20022;-87
2022/10/12 01:31:18;;;;;;;8.07;3.50;;;;;;;;;;5020289;28;20280;-87
2022/10/12 01:33:49;;;;;;;11.82;4.05;;;;;;;;;;5021010;28;20051;-87
2022/10/12 01:36:18;;;;;;;15.10;4.28;;;;;;;;;;5021110;28;20564;-87
2022/10/12 01:38:43;;;;;;;13.60;3.83;;;;;;;;;;5025205;28;20032;-88
2022/10/12 01:41:14;;;;;;;12.15;4.80;;;;;;;;;;5025310;28;20048;-88
2022/10/12 01:43:41;;;;;;;9.60;4.00;;;;;;;;;;5025351;28;20028;-87
2022/10/12 01:46:15;;;;;;;10.75;3.80;;;;;;;;;;5021684;28;20064;-88
2022/10/12 01:48:42;;;;;;;14.68;4.80;;;;;;;;;;5026251;28;20029;-87
2022/10/12 01:51:08;;;;;;;10.77;3.88;;;;;;;;;;5028147;28;20102;-87
2022/10/12 01:53:52;;;;;;;7.07;3.10;;;;;;;;;;5029566;28;20017;-87
2022/10/12 01:56:21;;;;;;;12.45;3.90;;;;;;;;;;5029080;28;20021;-88
2022/10/12 01:58:56;;;;;;;12.27;3.90;;;;;;;;;;5029391;28;20022;-87
2022/10/12 02:01:31;;;;;;;13.05;3.67;;;;;;;;;;5028395;28;20026;-88
2022/10/12 02:04:08;;;;;;;12.82;3.50;;;;;;;;;;5026366;28;20096;-87
2022/10/12 02:06:37;;;;;;;9.05;2.83;;;;;;;;;;5028033;28;20018;-88
2022/10/12 02:09:04;;;;;;;11.13;3.70;;;;;;;;;;5028994;28;20025;-88
2022/10/12 02:11:32;;;;;;;10.35;3.58;;;;;;;;;;5029794;28;20021;-87
2022/10/12 02:14:00;;;;;;;12.82;3.38;;;;;;;;;;5027887;28;20033;-88
2022/10/12 02:16:28;;;;;;;12.52;4.15;;;;;;;;;;5028074;28;20033;-87
2022/10/12 02:18:54;;;;;;;9.40;3.58;;;;;;;;;;5030846;28;20108;-87
2022/10/12 02:21:22;;;;;;;8.23;3.67;;;;;;;;;;5041592;28;20021;-87
2022/10/12 02:23:48;;;;;;;12.35;4.00;;;;;;;;;;5025590;28;20565;-88
2022/10/12 02:26:14;;;;;;;11.95;3.70;;;;;;;;;;5028127;28;20017;-88
2022/10/12 02:28:41;;;;;;;11.55;3.38;;;;;;;;;;5030600;28;20029;-87
2022/10/12 02:31:09;;;;;;;6.70;3.15;;;;;;;;;;5028022;28;20141;-87
2022/10/12 02:33:43;;;;;;;10.38;3.53;;;;;;;;;;5028339;28;20021;-87
2022/10/12 02:36:16;;;;;;;14.27;3.60;;;;;;;;;;5028745;28;20078;-87
2022/10/12 02:38:47;;;;;;;8.30;3.35;;;;;;;;;;5025932;28;20040;-87
2022/10/12 02:41:18;;;;;;;9.57;3.10;;;;;;;;;;5023523;28;20600;-87
2022/10/12 02:43:52;;;;;;;10.90;3.42;;;;;;;;;;5026350;28;20046;-87
2022/10/12 02:46:19;;;;;;;13.00;3.55;;;;;;;;;;5027397;28;20041;-87
2022/10/12 02:48:45;;;;;;;13.38;3.78;;;;;;;;;;5028786;28;20040;-87
2022/10/12 02:51:10;;;;;;;10.63;3.25;;;;;;;;;;5027297;28;20040;-87
2022/10/12 02:53:36;;;;;;;8.52;3.15;;;;;;;;;;5029870;28;20047;-87
2022/10/12 02:56:06;;;;;;;9.38;3.35;;;;;;;;;;5028112;28;20029;-87
2022/10/12 02:58:32;;;;;;;8.43;3.30;;;;;;;;;;5030785;28;20021;-88
2022/10/12 03:00:57;;;;;;;10.23;3.30;;;;;;;;;;5029235;28;20075;-88
2022/10/12 03:03:22;;;;;;;7.03;2.78;;;;;;;;;;5026214;28;20027;-87
2022/10/12 03:05:47;;;;;;;7.10;3.22;;;;;;;;;;5027209;28;20385;-88
2022/10/12 03:08:13;;;;;;;8.05;3.38;;;;;;;;;;5026070;28;20436;-88
2022/10/12 03:10:38;;;;;;;6.20;3.45;;;;;;;;;;5026830;28;20028;-87
2022/10/12 03:13:03;;;;;;;10.30;3.55;;;;;;;;;;5027400;28;20045;-87
2022/10/12 03:15:29;;;;;;;11.77;3.40;;;;;;;;;;5027927;28;20021;-87
2022/10/12 03:17:54;;;;;;;11.25;3.55;;;;;;;;;;5026026;28;20432;-87
2022/10/12 03:20:19;;;;;;;20.48;7.13;;;;;;;;;;5027786;28;20060;-87
2022/10/12 03:22:45;;;;;;;24.35;6.18;;;;;;;;;;5026368;28;20033;-88
2022/10/12 03:25:10;;;;;;;17.58;6.82;;;;;;;;;;5027178;28;20049;-87
2022/10/12 03:27:35;;;;;;;23.63;10.50;;;;;;;;;;5024077;28;20110;-88
2022/10/12 03:30:01;;;;;;;33.70;12.40;;;;;;;;;;5029138;28;20115;-87
2022/10/12 03:32:26;;;;;;;22.30;7.38;;;;;;;;;;5025638;28;20088;-88
2022/10/12 03:34:51;;;;;;;9.27;3.78;;;;;;;;;;5027552;28;20021;-87
2022/10/12 03:37:16;;;;;;;13.35;3.70;;;;;;;;;;5026945;28;20029;-88
2022/10/12 03:39:42;;;;;;;13.88;4.85;;;;;;;;;;5026623;28;20027;-88
2022/10/12 03:42:07;;;;;;;21.17;7.95;;;;;;;;;;5027032;28;20036;-88
2022/10/12 03:44:32;;;;;;;17.63;7.40;;;;;;;;;;5021527;28;20032;-88
2022/10/12 03:46:57;;;;;;;20.65;8.13;;;;;;;;;;5026459;28;20018;-88
2022/10/12 03:49:22;;;;;;;14.27;5.72;;;;;;;;;;5028858;28;20052;-88
2022/10/12 03:51:48;;;;;;;21.65;8.68;;;;;;;;;;5030201;28;20021;-88
2022/10/12 03:54:13;;;;;;;19.95;7.43;;;;;;;;;;5027081;28;20036;-87
2022/10/12 03:56:38;;;;;;;17.00;5.47;;;;;;;;;;5024920;28;20030;-88
2022/10/12 03:59:04;;;;;;;14.70;5.60;;;;;;;;;;5024452;28;20028;-88
2022/10/12 04:01:29;;;;;;;17.70;5.82;;;;;;;;;;5025293;28;20075;-87
2022/10/12 04:03:54;;;;;;;14.98;6.18;;;;;;;;;;5027135;28;20017;-87
2022/10/12 04:06:19;;;;;;;16.47;5.47;;;;;;;;;;5027248;28;20014;-87
2022/10/12 04:08:44;;;;;;;8.82;4.82;;;;;;;;;;5024472;28;20808;-88
2022/10/12 04:11:10;;;;;;;10.40;4.50;;;;;;;;;;5025016;28;20485;-88
2022/10/12 04:13:35;;;;;;;10.05;4.40;;;;;;;;;;5021695;28;20033;-87
2022/10/12 04:16:04;;;;;;;8.65;3.95;;;;;;;;;;5014368;28;20523;-87
2022/10/12 04:18:29;;;;;;;7.70;4.00;;;;;;;;;;5021532;28;20116;-88
2022/10/12 04:20:55;;;;;;;8.80;3.88;;;;;;;;;;5024265;28;20097;-87
2022/10/12 04:23:20;;;;;;;12.32;4.63;;;;;;;;;;5028259;28;20108;-87
2022/10/12 04:25:45;;;;;;;14.13;3.97;;;;;;;;;;5026160;28;20029;-87
2022/10/12 04:28:11;;;;;;;18.95;4.22;;;;;;;;;;5029851;28;20010;-87
2022/10/12 04:30:37;;;;;;;14.63;4.45;;;;;;;;;;5026003;28;20085;-88
2022/10/12 04:33:22;;;;;;;16.45;4.30;;;;;;;;;;5029957;28;20096;-88
2022/10/12 04:35:47;;;;;;;11.05;4.15;;;;;;;;;;5026237;28;20040;-88
2022/10/12 04:38:12;;;;;;;10.18;4.90;;;;;;;;;;5027626;28;20010;-87
2022/10/12 04:40:38;;;;;;;11.95;4.30;;;;;;;;;;5025665;28;20017;-87
2022/10/12 04:43:03;;;;;;;11.13;4.30;;;;;;;;;;5027213;28;20056;-87
2022/10/12 04:45:28;;;;;;;15.98;4.60;;;;;;;;;;5023678;28;20079;-88
2022/10/12 04:47:53;;;;;;;15.75;4.00;;;;;;;;;;5026964;28;20117;-87
2022/10/12 04:50:19;;;;;;;8.77;3.90;;;;;;;;;;5025109;28;20033;-88
2022/10/12 04:52:44;;;;;;;18.67;4.15;;;;;;;;;;5028634;28;20009;-87
2022/10/12 04:55:09;;;;;;;11.85;3.72;;;;;;;;;;5025924;28;20024;-88
2022/10/12 04:57:34;;;;;;;14.90;4.25;;;;;;;;;;5026208;28;20021;-87
2022/10/12 05:00:00;;;;;;;20.45;4.68;;;;;;;;;;5027362;28;20033;-87
2022/10/12 05:02:25;;;;;;;18.63;4.65;;;;;;;;;;5023234;28;20044;-88
2022/10/12 05:04:51;;;;;;;10.57;4.20;;;;;;;;;;5030087;28;20509;-87
2022/10/12 05:07:21;;;;;;;15.48;4.07;;;;;;;;;;5032212;28;20017;-87
2022/10/12 05:10:19;;;;;;;15.63;4.50;;;;;;;;;;5031947;28;20032;-88
2022/10/12 05:12:57;;;;;;;15.98;4.40;;;;;;;;;;5027545;28;20025;-87
2022/10/12 05:15:32;;;;;;;13.82;4.80;;;;;;;;;;5025809;28;20139;-87
2022/10/12 05:18:17;;;;;;;8.93;4.47;;;;;;;;;;5023833;28;20579;-87
2022/10/12 05:20:46;;;;;;;15.02;4.85;;;;;;;;;;5019948;28;20095;-87
2022/10/12 05:23:22;;;;;;;17.92;5.18;;;;;;;;;;5022193;28;20030;-88
2022/10/12 05:26:16;;;;;;;16.05;4.97;;;;;;;;;;5020754;28;20028;-88
2022/10/12 05:28:57;;;;;;;12.68;4.68;;;;;;;;;;5020391;28;20021;-88
2022/10/12 05:31:46;;;;;;;10.60;4.50;;;;;;;;;;5023089;28;20025;-87
2022/10/12 05:34:12;;;;;;;13.70;4.15;;;;;;;;;;5020612;28;20021;-87
2022/10/12 05:37:01;;;;;;;15.00;4.72;;;;;;;;;;5020974;28;20547;-88
2022/10/12 05:40:01;;;;;;;9.75;4.60;;;;;;;;;;5008875;28;20059;-88
2022/10/12 05:42:38;;;;;;;;;;;;;;;;;;;;;
2022/10/12 05:45:14;;;;;;;13.35;4.25;;;;;;;;;;5017589;28;20032;-88
2022/10/12 05:47:42;;;;;;;8.93;4.38;;;;;;;;;;5017063;28;20126;-89
2022/10/12 05:50:07;;;;;;;15.48;4.63;;;;;;;;;;5024665;28;20083;-88
2022/10/12 05:52:33;;;;;;;18.40;5.85;;;;;;;;;;5029132;28;20021;-87
2022/10/12 05:54:58;;;;;;;13.90;5.18;;;;;;;;;;5024339;28;20604;-88
2022/10/12 05:57:23;;;;;;;20.20;4.90;;;;;;;;;;5023638;28;20014;-87
2022/10/12 05:59:48;;;;;;;9.43;4.40;;;;;;;;;;5025245;28;20025;-89
2022/10/12 06:02:14;;;;;;;16.33;4.60;;;;;;;;;;5034316;28;20032;-87
2022/10/12 06:04:40;;;;;;;14.75;5.03;;;;;;;;;;5030518;28;20025;-87
2022/10/12 06:07:05;;;;;;;12.68;4.90;;;;;;;;;;5032194;28;20017;-88
2022/10/12 06:09:31;;;;;;;19.85;4.80;;;;;;;;;;5025623;28;20032;-87
2022/10/12 06:11:56;;;;;;;17.35;4.85;;;;;;;;;;5042808;28;20025;-87
2022/10/12 06:14:24;;;;;;;12.57;4.35;;;;;;;;;;5045936;28;20132;-87
2022/10/12 06:17:23;;;;;;;14.73;4.70;;;;;;;;;;5045948;28;20010;-89
2022/10/12 06:19:51;;;;;;;12.40;4.95;;;;;;;;;;5026702;28;20045;-88
2022/10/12 06:22:19;;;;;;;12.10;5.03;;;;;;;;;;5028313;28;20080;-88
2022/10/12 06:24:44;;;;;;;13.23;4.57;;;;;;;;;;5023068;28;20115;-88
2022/10/12 06:27:09;;;;;;;13.90;4.20;;;;;;;;;;5027807;28;20046;-88
2022/10/12 06:29:34;;;;;;;15.45;4.25;;;;;;;;;;5022855;28;20063;-87
2022/10/12 06:32:00;;;;;;;12.02;4.80;;;;;;;;;;5019353;28;20112;-88
2022/10/12 06:34:25;;;;;;;11.77;4.80;;;;;;;;;;5025496;28;20029;-87
2022/10/12 06:36:51;;;;;;;15.52;4.05;;;;;;;;;;5027626;28;20148;-87
2022/10/12 06:39:19;;;;;;;7.00;3.30;;;;;;;;;;5020694;28;20542;-88
2022/10/12 06:41:45;;;;;;;13.30;5.10;;;;;;;;;;5024826;28;20022;-89
2022/10/12 06:44:27;;;;;;;;;;;;;;;;;;;;;
2022/10/12 06:46:55;;;;;;;10.57;4.28;;;;;;;;;;5029960;28;20028;-89
2022/10/12 06:49:23;;;;;;;15.88;5.22;;;;;;;;;;5027944;28;20100;-88
2022/10/12 06:51:54;;;;;;;21.52;6.15;;;;;;;;;;5022786;28;20109;-88
2022/10/12 06:54:30;;;;;;;18.17;5.57;;;;;;;;;;5020906;28;20112;-88
2022/10/12 06:57:05;;;;;;;16.27;5.57;;;;;;;;;;5027075;28;20021;-89
2022/10/12 06:59:54;;;;;;;13.82;4.95;;;;;;;;;;5027534;28;20499;-89
2022/10/12 07:02:38;;;;;;;9.77;4.50;;;;;;;;;;5025250;28;20056;-89
2022/10/12 07:05:10;;;;;;;17.40;5.40;;;;;;;;;;5026757;28;20591;-89
2022/10/12 07:07:38;;;;;;;17.73;5.05;;;;;;;;;;5027407;28;20060;-89
2022/10/12 07:10:12;;;;;;;18.80;5.93;;;;;;;;;;5025928;28;20029;-89
2022/10/12 07:12:40;;;;;;;19.75;4.88;;;;;;;;;;5024480;28;20013;-89
2022/10/12 07:15:20;;;;;;;15.35;4.20;;;;;;;;;;5028842;28;20072;-89
2022/10/12 07:17:49;;;;;;;15.88;5.20;;;;;;;;;;5022209;28;20029;-89
2022/10/12 07:20:25;;;;;;;10.35;4.03;;;;;;;;;;5024098;28;20156;-89
2022/10/12 07:22:54;;;;;;;11.68;3.65;;;;;;;;;;5025309;28;20037;-90
2022/10/12 07:25:25;;;;;;;13.27;3.33;;;;;;;;;;5022252;28;20048;-89
2022/10/12 07:27:50;;;;;;;7.47;3.22;;;;;;;;;;5022248;28;20021;-86
2022/10/12 07:30:15;;;;;;;9.05;2.88;;;;;;;;;;5018860;28;20028;-87
2022/10/12 07:32:41;;;;;;;9.48;2.95;;;;;;;;;;5025225;28;20108;-87
2022/10/12 07:35:06;;;;;;;10.52;3.08;;;;;;;;;;5021753;28;20742;-87
2022/10/12 07:37:31;;;;;;;14.02;3.28;;;;;;;;;;5025434;28;20026;-86
2022/10/12 07:39:57;;;;;;;10.77;3.38;;;;;;;;;;5022770;28;20024;-87
2022/10/12 07:42:23;;;;;;;8.48;3.60;;;;;;;;;;5023266;28;20033;-87
2022/10/12 07:44:48;;;;;;;11.02;3.88;;;;;;;;;;5027867;28;20424;-87
2022/10/12 07:47:15;;;;;;;9.20;3.70;;;;;;;;;;5024240;28;20535;-87
2022/10/12 07:49:40;;;;;;;13.18;3.40;;;;;;;;;;5026958;28;20280;-87
2022/10/12 07:52:06;;;;;;;12.40;4.10;;;;;;;;;;5030613;28;20036;-87
2022/10/12 07:54:31;;;;;;;14.87;4.73;;;;;;;;;;5028993;28;20283;-87
2022/10/12 07:56:56;;;;;;;20.10;4.00;;;;;;;;;;5026936;28;20326;-87
2022/10/12 07:59:22;;;;;;;10.93;3.33;;;;;;;;;;5025614;28;20127;-87
2022/10/12 08:01:47;;;;;;;8.27;3.20;;;;;;;;;;5028162;28;20532;-87
2022/10/12 08:04:12;;;;;;;9.82;3.38;;;;;;;;;;5025793;28;20265;-87
2022/10/12 08:06:40;;;;;;;13.70;4.17;;;;;;;;;;5022539;28;20017;-87
2022/10/12 08:09:05;;;;;;;12.65;4.00;;;;;;;;;;5023756;28;20342;-87
2022/10/12 08:11:31;;;;;;;10.88;4.22;;;;;;;;;;5025624;28;20025;-87
2022/10/12 08:13:56;;;;;;;10.98;3.42;;;;;;;;;;5025483;28;20029;-87
2022/10/12 08:16:21;;;;;;;20.58;4.85;;;;;;;;;;5025590;28;20539;-87
2022/10/12 08:18:46;;;;;;;8.82;3.72;;;;;;;;;;5028677;28;20618;-87
2022/10/12 08:21:13;;;;;;;8.63;2.97;;;;;;;;;;5028496;28;20014;-86
2022/10/12 08:23:38;;;;;;;6.03;2.80;;;;;;;;;;5024505;28;20017;-86
2022/10/12 08:26:04;;;;;;;8.13;2.90;;;;;;;;;;5026730;28;20018;-88
2022/10/12 08:28:29;;;;;;;11.15;3.60;;;;;;;;;;5026398;28;20382;-86
2022/10/12 08:30:55;;;;;;;12.50;2.95;;;;;;;;;;5022775;28;20413;-86
2022/10/12 08:33:20;;;;;;;8.27;2.35;;;;;;;;;;5027205;28;20113;-87
2022/10/12 08:35:46;;;;;;;7.68;2.63;;;;;;;;;;5026740;28;20041;-85
2022/10/12 08:38:11;;;;;;;13.23;3.15;;;;;;;;;;5024736;28;20025;-86
2022/10/12 08:40:46;;;;;;;8.95;2.60;;;;;;;;;;5027648;28;20027;-87
2022/10/12 08:43:26;;;;;;;11.48;3.38;;;;;;;;;;5030026;28;20017;-87
2022/10/12 08:45:55;;;;;;;10.60;3.03;;;;;;;;;;5029745;28;20037;-87
2022/10/12 08:48:24;;;;;;;9.82;2.40;;;;;;;;;;5025830;28;20026;-87
2022/10/12 08:50:52;;;;;;;5.35;2.83;;;;;;;;;;5026305;28;20082;-85
2022/10/12 08:53:21;;;;;;;11.20;2.85;;;;;;;;;;5027788;28;20048;-87
2022/10/12 08:55:47;;;;;;;7.22;2.47;;;;;;;;;;5027920;28;20033;-88
2022/10/12 08:58:16;;;;;;;13.00;2.97;;;;;;;;;;5028119;28;20021;-87
2022/10/12 09:00:44;;;;;;;15.15;3.10;;;;;;;;;;5026813;28;20381;-88
2022/10/12 09:03:14;;;;;;;3.22;1.33;;;;;;;;;;5028017;28;20021;-87
2022/10/12 09:05:49;;;;;;;13.20;3.03;;;;;;;;;;5026335;28;20018;-85
2022/10/12 09:08:40;;;;;;;9.60;3.30;;;;;;;;;;5028644;28;20386;-86
2022/10/12 09:11:16;;;;;;;7.68;2.47;;;;;;;;;;5027528;28;20046;-87
2022/10/12 09:13:44;;;;;;;18.55;3.50;;;;;;;;;;5028466;28;20465;-87
2022/10/12 09:16:15;;;;;;;12.60;2.53;;;;;;;;;;5027823;28;20022;-88
2022/10/12 09:18:43;;;;;;;6.03;2.03;;;;;;;;;;5025454;28;20052;-87
2022/10/12 09:21:12;;;;;;;12.40;2.35;;;;;;;;;;5024407;28;20030;-86
2022/10/12 09:23:38;;;;;;;9.63;2.10;;;;;;;;;;5026668;28;20088;-87
2022/10/12 09:26:10;;;;;;;11.30;2.42;;;;;;;;;;5027652;28;20108;-86
2022/10/12 09:28:39;;;;;;;13.18;2.83;;;;;;;;;;5027244;28;20025;-85
2022/10/12 09:31:12;;;;;;;10.85;2.53;;;;;;;;;;5029616;28;20453;-87
2022/10/12 09:33:44;;;;;;;12.75;2.22;;;;;;;;;;5028688;28;20033;-87
2022/10/12 09:36:11;;;;;;;13.35;2.40;;;;;;;;;;5026955;28;20053;-85
2022/10/12 09:38:37;;;;;;;9.93;1.50;;;;;;;;;;5023905;28;20033;-87
2022/10/12 09:41:02;;;;;;;15.23;3.05;;;;;;;;;;5028713;28;20022;-87
2022/10/12 09:43:27;;;;;;;10.82;2.20;;;;;;;;;;5027047;28;20017;-86
2022/10/12 09:45:53;;;;;;;12.27;3.15;;;;;;;;;;5028894;28;20018;-86
2022/10/12 09:48:23;;;;;;;7.05;2.25;;;;;;;;;;5027000;28;20032;-86
2022/10/12 09:50:48;;;;;;;;;;;;;;;;;;5027039;28;20022;-86
2022/10/12 09:53:20;;;;;;;5.90;2.53;;;;;;;;;;5026708;28;20269;-86
2022/10/12 09:55:53;;;;;;;8.38;1.23;;;;;;;;;;5023424;28;20482;-87
2022/10/12 09:58:19;;;;;;;7.72;2.05;;;;;;;;;;5025836;28;20021;-86
2022/10/12 10:00:44;;;;;;;9.55;2.28;;;;;;;;;;5025778;28;20694;-86
2022/10/12 10:03:21;;;;;;;10.07;2.25;;;;;;;;;;5026763;28;20021;-86
2022/10/12 10:06:00;;;;;;;10.27;2.83;;;;;;;;;;5024274;28;20033;-87
2022/10/12 10:08:25;;;;;;;9.80;2.47;;;;;;;;;;5029192;28;20040;-86
2022/10/12 10:10:52;;;;;;;10.55;2.90;;;;;;;;;;5028924;28;20073;-86
2022/10/12 10:13:18;;;;;;;15.50;3.25;;;;;;;;;;5031323;28;20075;-86
2022/10/12 10:15:46;;;;;;;6.10;1.63;;;;;;;;;;5031766;28;20479;-87
2022/10/12 10:18:30;;;;;;;2.63;1.00;;;;;;;;;;5030968;28;20018;-86
2022/10/12 10:20:56;;;;;;;8.00;1.40;;;;;;;;;;5028995;28;20021;-87
2022/10/12 10:23:21;;;;;;;11.07;3.10;;;;;;;;;;5032329;28;20017;-86
2022/10/12 10:25:53;;;;;;;8.20;2.23;;;;;;;;;;5031712;28;20076;-87
2022/10/12 10:28:27;;;;;;;11.98;2.75;;;;;;;;;;5032469;28;20312;-86
2022/10/12 10:31:01;;;;;;;14.18;2.72;;;;;;;;;;5029848;28;20093;-86
2022/10/12 10:33:27;;;;;;;18.65;3.63;;;;;;;;;;5028719;28;20022;-86
2022/10/12 10:35:57;;;;;;;10.10;2.67;;;;;;;;;;5031889;28;20385;-85
2022/10/12 10:38:22;;;;;;;16.20;4.68;;;;;;;;;;5033525;28;20085;-86
2022/10/12 10:40:53;;;;;;;13.73;2.72;;;;;;;;;;5033808;28;20108;-87
2022/10/12 10:43:28;;;;;;;6.82;2.45;;;;;;;;;;5025179;28;20027;-86
2022/10/12 10:45:55;;;;;;;10.45;2.47;;;;;;;;;;5030532;28;20017;-85
2022/10/12 10:48:22;;;;;;;12.07;2.65;;;;;;;;;;5028827;28;20528;-86
2022/10/12 10:50:52;;;;;;;15.15;3.40;;;;;;;;;;5028358;28;20052;-86
2022/10/12 10:53:18;;;;;;;;;;;;;;;;;;5030282;28;20024;-87
2022/10/12 10:55:43;;;;;;;5.97;2.30;;;;;;;;;;5029812;28;19999;-86
2022/10/12 10:58:31;;;;;;;9.50;2.47;;;;;;;;;;5031029;28;20366;-87
2022/10/12 11:00:59;;;;;;;7.70;1.23;;;;;;;;;;5029700;28;20379;-88
2022/10/12 11:03:34;;;;;;;8.13;2.22;;;;;;;;;;5028505;28;20048;-88
2022/10/12 11:06:07;;;;;;;6.40;1.80;;;;;;;;;;5030553;28;20053;-88
2022/10/12 11:08:33;;;;;;;7.35;2.78;;;;;;;;;;5028275;28;20366;-86
2022/10/12 11:11:19;;;;;;;11.18;2.20;;;;;;;;;;5030024;28;20075;-85
2022/10/12 11:13:54;;;;;;;12.95;2.40;;;;;;;;;;5032304;28;20551;-86
2022/10/12 11:16:38;;;;;;;6.72;2.10;;;;;;;;;;5026483;28;20029;-86
2022/10/12 11:19:22;;;;;;;1.17;0.68;;;;;;;;;;5029805;28;20025;-87
2022/10/12 11:21:52;;;;;;;5.55;1.70;;;;;;;;;;5013574;28;20018;-87
2022/10/12 11:24:41;;;;;;;4.85;1.48;;;;;;;;;;5024677;28;20017;-86
2022/10/12 11:27:09;;;;;;;13.10;3.00;;;;;;;;;;5025302;28;20048;-86
2022/10/12 11:29:35;;;;;;;8.95;2.47;;;;;;;;;;5034339;28;20349;-87
2022/10/12 11:32:02;;;;;;;9.90;2.72;;;;;;;;;;5034113;28;20045;-85
2022/10/12 11:34:30;;;;;;;7.93;2.10;;;;;;;;;;5035745;28;20029;-86
2022/10/12 11:36:55;;;;;;;11.05;3.03;;;;;;;;;;5035026;28;20018;-87
2022/10/12 11:39:31;;;;;;;11.77;2.75;;;;;;;;;;5015950;28;20105;-87
2022/10/12 11:41:58;;;;;;;8.57;2.80;;;;;;;;;;5016133;28;20253;-87
2022/10/12 11:44:40;;;;;;;12.23;2.53;;;;;;;;;;5015782;28;20544;-86
2022/10/12 11:47:13;;;;;;;9.13;2.25;;;;;;;;;;5032639;28;20040;-87
2022/10/12 11:49:57;;;;;;;21.58;2.55;;;;;;;;;;5035343;28;20013;-87
2022/10/12 11:52:23;;;;;;;17.98;3.97;;;;;;;;;;5034826;28;20029;-87
2022/10/12 11:55:23;;;;;;;14.52;2.85;;;;;;;;;;5028696;28;20025;-87
2022/10/12 11:57:48;;;;;;;;;;;;;;;;;;5004872;28;20584;-86
2022/10/12 12:00:18;;;;;;;14.68;2.65;;;;;;;;;;5020429;28;20448;-86
2022/10/12 12:02:47;;;;;;;22.10;2.90;;;;;;;;;;5027772;28;20025;-87
2022/10/12 12:05:14;;;;;;;14.13;2.38;;;;;;;;;;5029464;28;20029;-88
2022/10/12 12:07:48;;;;;;;9.82;2.20;;;;;;;;;;5029408;28;20061;-88
2022/10/12 12:10:35;;;;;;;7.68;2.55;;;;;;;;;;5029962;28;20022;-86
2022/10/12 12:13:10;;;;;;;15.38;2.85;;;;;;;;;;5027506;28;20110;-86
2022/10/12 12:15:35;;;;;;;11.55;2.40;;;;;;;;;;5028392;28;20018;-86
2022/10/12 12:18:19;;;;;;;12.23;2.75;;;;;;;;;;5030581;28;20067;-88
2022/10/12 12:20:48;;;;;;;11.23;2.50;;;;;;;;;;5030335;28;20041;-87
2022/10/12 12:23:20;;;;;;;12.13;3.40;;;;;;;;;;5045773;28;20022;-86
2022/10/12 12:25:45;;;;;;;14.43;3.72;;;;;;;;;;5026470;28;20112;-87
2022/10/12 12:28:21;;;;;;;8.85;2.85;;;;;;;;;;5025738;28;20109;-86
2022/10/12 12:31:00;;;;;;;11.73;3.22;;;;;;;;;;5030225;28;20122;-86
2022/10/12 12:33:30;;;;;;;12.50;3.40;;;;;;;;;;5030087;28;20029;-85
2022/10/12 12:36:05;;;;;;;11.80;3.45;;;;;;;;;;5028644;28;20013;-86
2022/10/12 12:38:32;;;;;;;10.93;3.70;;;;;;;;;;5029723;28;20056;-86
2022/10/12 12:40:59;;;;;;;16.25;3.53;;;;;;;;;;5026904;28;20397;-86
2022/10/12 12:43:27;;;;;;;11.30;2.70;;;;;;;;;;5025506;28;20045;-86
2022/10/12 12:45:54;;;;;;;7.97;2.55;;;;;;;;;;5027639;28;20016;-85
2022/10/12 12:48:38;;;;;;;9.60;3.25;;;;;;;;;;5026305;28;20766;-86
2022/10/12 12:51:08;;;;;;;11.98;3.25;;;;;;;;;;5026156;28;20026;-86
2022/10/12 12:53:53;;;;;;;12.48;3.50;;;;;;;;;;5029350;28;20117;-86
2022/10/12 12:56:40;;;;;;;14.70;4.20;;;;;;;;;;5028742;28;20030;-86
2022/10/12 12:59:25;;;;;;;13.07;3.88;;;;;;;;;;5028546;28;20025;-86
2022/10/12 13:02:12;;;;;;;15.50;4.35;;;;;;;;;;5022157;28;20398;-86
2022/10/12 13:04:59;;;;;;;12.18;3.47;;;;;;;;;;5028361;28;20025;-86
2022/10/12 13:07:24;;;;;;;19.08;3.53;;;;;;;;;;5027600;28;20018;-86
2022/10/12 13:10:08;;;;;;;11.98;2.97;;;;;;;;;;5028525;28;20029;-86
2022/10/12 13:12:52;;;;;;;11.50;3.60;;;;;;;;;;5029244;28;20033;-87
2022/10/12 13:15:17;;;;;;;11.85;3.80;;;;;;;;;;5026690;28;20636;-86
2022/10/12 13:17:59;;;;;;;10.57;3.45;;;;;;;;;;5027076;28;20025;-86
2022/10/12 13:20:27;;;;;;;14.77;3.90;;;;;;;;;;5013534;28;20024;-86
2022/10/12 13:22:54;;;;;;;13.55;4.25;;;;;;;;;;5008721;28;20117;-86
2022/10/12 13:25:24;;;;;;;15.35;4.10;;;;;;;;;;5010652;28;20406;-86
2022/10/12 13:27:50;;;;;;;11.13;3.50;;;;;;;;;;5019032;28;20526;-85
2022/10/12 13:30:34;;;;;;;13.98;5.28;;;;;;;;;;5032329;28;20025;-86
2022/10/12 13:33:26;;;;;;;13.73;3.70;;;;;;;;;;5031244;28;20022;-86
2022/10/12 13:36:01;;;;;;;18.10;3.42;;;;;;;;;;5013806;28;20033;-85
2022/10/12 13:38:27;;;;;;;17.58;3.50;;;;;;;;;;5011954;28;20490;-85
2022/10/12 13:41:22;;;;;;;10.13;3.45;;;;;;;;;;5009734;28;20025;-87
2022/10/12 13:43:49;;;;;;;16.90;4.15;;;;;;;;;;5007928;28;20030;-85
2022/10/12 13:46:34;;;;;;;15.38;3.70;;;;;;;;;;5028553;28;20022;-86
2022/10/12 13:49:00;;;;;;;15.40;3.92;;;;;;;;;;5029025;28;20069;-86
2022/10/12 13:51:26;;;;;;;17.17;3.90;;;;;;;;;;5028689;28;20021;-86
2022/10/12 13:53:52;;;;;;;13.75;3.75;;;;;;;;;;5025534;28;20018;-87
2022/10/12 13:56:19;;;;;;;15.70;3.60;;;;;;;;;;5017520;28;20027;-86
2022/10/12 13:58:45;;;;;;;9.68;3.40;;;;;;;;;;5027633;28;20026;-86
2022/10/12 14:01:11;;;;;;;9.30;3.13;;;;;;;;;;5027011;28;20110;-88
2022/10/12 14:03:38;;;;;;;15.77;3.60;;;;;;;;;;5027546;28;20061;-86
2022/10/12 14:06:03;;;;;;;10.10;3.53;;;;;;;;;;5027062;28;20438;-86
2022/10/12 14:08:31;;;;;;;11.85;4.15;;;;;;;;;;5026803;28;20060;-85
2022/10/12 14:10:57;;;;;;;15.80;4.25;;;;;;;;;;5026664;28;20025;-86
2022/10/12 14:13:32;;;;;;;9.90;3.40;;;;;;;;;;5028441;28;20023;-83
2022/10/12 14:15:59;;;;;;;16.40;4.75;;;;;;;;;;5028364;28;20049;-89
2022/10/12 14:18:34;;;;;;;11.55;4.60;;;;;;;;;;5027545;28;20040;-87
2022/10/12 14:21:14;;;;;;;9.02;3.60;;;;;;;;;;5028235;28;20017;-87
2022/10/12 14:23:43;;;;;;;6.25;2.25;;;;;;;;;;5027008;28;20049;-87
2022/10/12 14:26:22;;;;;;;17.90;4.45;;;;;;;;;;5027978;28;20096;-83
2022/10/12 14:28:48;;;;;;;9.82;4.03;;;;;;;;;;5029039;28;20061;-87
2022/10/12 14:31:13;;;;;;;10.57;3.83;;;;;;;;;;5027756;28;20025;-88
2022/10/12 14:33:38;;;;;;;15.35;5.35;;;;;;;;;;5027538;28;20108;-86
2022/10/12 14:36:11;;;;;;;11.50;3.58;;;;;;;;;;5027656;28;20057;-87
2022/10/12 14:38:44;;;;;;;10.43;3.92;;;;;;;;;;5026505;28;20026;-87
2022/10/12 14:41:28;;;;;;;10.35;3.95;;;;;;;;;;5026307;28;20033;-88
2022/10/12 14:44:08;;;;;;;7.45;3.40;;;;;;;;;;5024077;28;20014;-87
2022/10/12 14:46:53;;;;;;;10.40;4.20;;;;;;;;;;5007416;28;20042;-87
2022/10/12 14:49:18;;;;;;;18.27;3.60;;;;;;;;;;5014489;28;20030;-87
2022/10/12 14:51:43;;;;;;;12.63;3.00;;;;;;;;;;5012095;28;20643;-87